ADDS METAR Data INFO
IDs: Format: Raw Decoded Include TAF

Data at: 0027 UTC 11 Dec 2017

KAVX 102351Z AUTO 02004KT 10SM CLR 23/M11 A3014 RMK AO2 SLP184 T02281106 10256 20228 55006
KAVX 102251Z AUTO 06004KT 10SM CLR 24/M12 A3014 RMK AO2 SLP182 T02391117
KAVX 102151Z AUTO 04004KT 10SM CLR 24/M11 A3015 RMK AO2 SLP185 T02441111
KAVX 102051Z AUTO 08007KT 10SM CLR 24/M12 A3016 RMK AO2 SLP189 T02391117 58017
KAVX 102003Z AUTO 06008KT 10SM FEW002 26/M11 A3018 RMK AO2 T02561111
KAVX 101951Z AUTO 09007KT 10SM CLR 25/M11 A3019 RMK AO2 SLP197 T02501111
KAVX 101851Z AUTO 09010KT 10SM CLR 23/M11 A3020 RMK AO2 SLP203 T02331111
KAVX 101751Z AUTO 09012KT 10SM CLR 23/M12 A3021 RMK AO2 SLP206 T02331117 10233 20189 50004
KAVX 101651Z AUTO 08012KT 10SM CLR 21/M11 A3021 RMK AO2 SLP209 T02111106
KAVX 101551Z AUTO 07009KT 10SM CLR 19/M13 A3021 RMK AO2 SLP208 T01941133
KAVX 101451Z AUTO 08012KT 10SM CLR 20/M15 A3020 RMK AO2 SLP204 T02001150 53007
KAVX 101351Z AUTO 08011KT 10SM CLR 19/M14 A3020 RMK AO2 SLP203 T01941144
KAVX 101251Z AUTO 09013KT 10SM CLR 19/M15 A3018 RMK AO2 SLP198 T01941150
KAVX 101151Z AUTO 09011KT 10SM CLR 19/M14 A3018 RMK AO2 SLP197 T01941144 10211 20183 58004
KAVX 101051Z AUTO 10010KT 10SM CLR 19/M14 A3019 RMK AO2 SLP200 T01941139
KAVX 100951Z AUTO 10011KT 10SM CLR 18/M13 A3019 RMK AO2 SLP200 T01831128
KAVX 100851Z AUTO 09013KT 10SM CLR 19/M13 A3019 RMK AO2 SLP201 T01891128 58005
KAVX 100751Z AUTO 07010KT 10SM CLR 19/M12 A3020 RMK AO2 SLP203 T01941122 402440183
KAVX 100651Z AUTO 08012KT 10SM CLR 19/M10 A3021 RMK AO2 SLP206 T01941100
KAVX 100551Z AUTO 07010KT 10SM CLR 21/M13 A3021 RMK AO2 SLP205 T02111133 10228 20200 53002
KAVX 100451Z AUTO 10013KT 10SM CLR 21/M12 A3021 RMK AO2 SLP205 T02111122
KAVX 100351Z AUTO 09011KT 10SM CLR 20/M09 A3020 RMK AO2 SLP206 T02001089
KAVX 100251Z AUTO 10011KT 10SM CLR 22/M09 A3020 RMK AO2 SLP206 T02171089 53008
KAVX 100151Z AUTO 01006KT 10SM CLR 21/M12 A3020 RMK AO2 SLP204 T02111122
KAVX 100051Z AUTO 01005KT 10SM CLR 22/M11 A3018 RMK AO2 SLP198 T02221106
KAVX 092351Z AUTO 02006KT 10SM CLR 23/M10 A3018 RMK AO2 SLP196 T02281100 10244 20228 56008
KAVX 092251Z AUTO 06005KT 10SM CLR 24/M11 A3018 RMK AO2 SLP195 T02391106
KAVX 092151Z AUTO 05007KT 10SM CLR 24/M11 A3018 RMK AO2 SLP197 T02391111
KAVX 092051Z AUTO 07008KT 10SM CLR 24/M11 A3020 RMK AO2 SLP203 T02391111 58022
KAVX 091951Z AUTO 08009KT 10SM CLR 23/M12 A3022 RMK AO2 SLP211 T02331117
KAVX 091851Z AUTO 09010KT 10SM CLR 23/M12 A3026 RMK AO2 SLP221 T02331122
KAVX 091751Z AUTO 09008KT 10SM CLR 23/M12 A3027 RMK AO2 SLP227 T02281122 10228 20183 51008
KAVX 091651Z AUTO 08007KT 10SM CLR 22/M12 A3027 RMK AO2 SLP229 T02171122
KAVX 091551Z AUTO 08009KT 10SM CLR 20/M12 A3026 RMK AO2 SLP228 T02001122
KAVX 091451Z AUTO 06009KT 10SM CLR 18/M12 A3024 RMK AO2 SLP224 T01831117 53002
KAVX 091351Z AUTO 08010KT 10SM CLR 18/M12 A3024 RMK AO2 SLP222 T01831117
KAVX 091251Z AUTO 07009KT 10SM CLR 19/M12 A3023 RMK AO2 SLP219 T01891122